Terminal Aerodrome Forecast
Issued by NWS

Current Version | Previous Version | Text Only | Print | Product List | Glossary On
Versions: 1 2 3 4 5 6 7 8 9 10 11 12 13 14 15 16 17 18 19 20 21 22 23 24 25 26 27 28 29 30 31 32 33 34
000
FTUS45 KGJT 271728
TAFMTJ
TAF
KMTJ 271728Z 2718/2818 34003KT P6SM BKN100 BKN120
     FM272300 17010KT P6SM VCSH BKN080
     FM280100 16010KT P6SM -SHRA BKN070
     FM281300 VRB03KT 6SM -SHRASN BKN030
     FM281400 VRB03KT P6SM BKN045=

USA.gov is the U.S. government's official web portal to all federal, state and local government web resources and services.